Pauls Store, Texas
Current Conditions -  °F | °C
As of 5:35 PM on Wednesday 22 Oct 2014 (Local Time) from KOCH Reporting Station
Clear Clear  
Wind Chill: 77°   Ceiling: Unl
Heat Index: 78°   Visibility: 10mi
Dew Point: 54°   Wind: 5mph
Humidity: 44%   Direction: 80°E
Pressure: 30.08"   Gusts: NA
Location:  31.7022°N, 93.9592°W
Report Text: KOCH 222235Z AUTO 08004KT 10SM CLR 25/12 A3008 RMK AO1
Loading
Personal Weather Stations






























Interactive Weather Map New forecast layout! Learn more

10-Day Weather Forecast

Advertisements
Track Severe Weather on mobile